Time;durP1;ratioP1;P1;durP2;ratioP2;P2;SDS_P1;SDS_P2;PMS_P1;PMS_P2;Temp;Humidity;BMP_temperature;BMP_pressure;BME280_temperature;BME280_humidity;BME280_pressure;Samples;Min_cycle;Max_cycle;Signal;HPM_P1;HPM_P2
2023/06/13 00:01:49;;;;;;;3.53;2.40;;;23.20;38.00;;;;;;5011979;28;20983;-75
2023/06/13 00:04:21;;;;;;;2.60;1.90;;;23.20;38.00;;;;;;5011605;28;20934;-75
2023/06/13 00:06:52;;;;;;;3.90;2.60;;;23.20;38.20;;;;;;5012706;28;20581;-75
2023/06/13 00:09:19;;;;;;;3.37;2.50;;;23.10;38.40;;;;;;5026321;28;20651;-75
2023/06/13 00:11:46;;;;;;;4.53;2.60;;;23.10;38.30;;;;;;5011612;28;20652;-74
2023/06/13 00:14:12;;;;;;;3.33;1.97;;;23.10;38.20;;;;;;4995268;28;20264;-75
2023/06/13 00:16:38;;;;;;;3.17;2.37;;;23.10;38.20;;;;;;5013978;28;20612;-74
2023/06/13 00:19:05;;;;;;;2.40;1.80;;;23.00;38.20;;;;;;5013917;28;20585;-74
2023/06/13 00:21:32;;;;;;;4.43;2.60;;;23.00;38.20;;;;;;5013805;28;20783;-74
2023/06/13 00:23:58;;;;;;;5.50;2.80;;;23.00;38.30;;;;;;4996362;28;20593;-74
2023/06/13 00:26:23;;;;;;;3.37;2.60;;;22.90;38.30;;;;;;5014214;28;20581;-74
2023/06/13 00:28:49;;;;;;;5.73;2.70;;;22.90;38.40;;;;;;5013386;28;20589;-74
2023/06/13 00:31:16;;;;;;;5.70;2.80;;;22.80;38.50;;;;;;4995851;28;20613;-74
2023/06/13 00:33:43;;;;;;;3.27;2.37;;;22.80;38.70;;;;;;5012659;28;20205;-74
2023/06/13 00:36:14;;;;;;;3.27;2.43;;;22.70;38.70;;;;;;5013393;28;20585;-75
2023/06/13 00:38:40;;;;;;;2.80;2.30;;;22.70;38.60;;;;;;5012176;28;20580;-75
2023/06/13 00:41:05;;;;;;;2.97;2.33;;;22.60;38.80;;;;;;5028121;28;21003;-74
2023/06/13 00:43:32;;;;;;;3.07;2.50;;;22.60;38.80;;;;;;5012338;28;20232;-75
2023/06/13 00:46:00;;;;;;;3.53;2.53;;;22.60;39.00;;;;;;4994159;28;20204;-74
2023/06/13 00:48:27;;;;;;;4.00;2.17;;;22.50;38.90;;;;;;5018206;28;20690;-74
2023/06/13 00:50:54;;;;;;;2.90;2.43;;;22.50;39.00;;;;;;5031439;28;20714;-74
2023/06/13 00:53:21;;;;;;;3.03;2.10;;;22.40;39.10;;;;;;5029451;28;20567;-74
2023/06/13 00:55:49;;;;;;;3.10;2.50;;;22.40;39.10;;;;;;5006329;28;21136;-74
2023/06/13 00:58:16;;;;;;;4.10;2.70;;;22.40;39.20;;;;;;5011268;28;20585;-75
2023/06/13 01:00:45;;;;;;;3.43;2.93;;;22.30;39.20;;;;;;5011734;28;20597;-75
2023/06/13 01:03:15;;;;;;;3.83;2.53;;;22.30;39.80;;;;;;4999563;28;20621;-75
2023/06/13 01:05:41;;;;;;;2.90;2.43;;;22.30;39.60;;;;;;4985980;28;20598;-74
2023/06/13 01:08:11;;;;;;;4.40;2.63;;;22.20;39.50;;;;;;5006639;28;20590;-75
2023/06/13 01:10:40;;;;;;;3.10;2.53;;;22.20;39.80;;;;;;4991676;28;20597;-75
2023/06/13 01:13:14;;;;;;;2.57;2.37;;;22.20;39.70;;;;;;4992341;28;20963;-74
2023/06/13 01:15:55;;;;;;;3.53;2.30;;;22.20;39.80;;;;;;5009583;28;20657;-75
2023/06/13 01:18:24;;;;;;;3.07;2.30;;;22.20;40.30;;;;;;4991312;28;21175;-74
2023/06/13 01:20:56;;;;;;;3.37;2.60;;;22.10;39.90;;;;;;4990536;28;20633;-75
2023/06/13 01:23:51;;;;;;;4.50;2.73;;;22.10;40.00;;;;;;4990677;28;20582;-74
2023/06/13 01:26:28;;;;;;;2.83;2.40;;;22.00;40.30;;;;;;4987560;28;20585;-75
2023/06/13 01:28:56;;;;;;;3.50;2.60;;;22.00;40.20;;;;;;4996779;28;20685;-75
2023/06/13 01:31:23;;;;;;;3.77;2.40;;;21.90;40.20;;;;;;5012801;28;20694;-74
2023/06/13 01:33:50;;;;;;;6.73;2.90;;;21.90;41.00;;;;;;5030310;28;20620;-74
2023/06/13 01:36:16;;;;;;;4.83;2.63;;;21.80;40.30;;;;;;5022084;28;20935;-75
2023/06/13 01:38:43;;;;;;;7.27;2.87;;;21.80;40.30;;;;;;5029645;28;21116;-74
2023/06/13 01:41:11;;;;;;;3.27;2.77;;;21.80;40.40;;;;;;5013071;28;20629;-74
2023/06/13 01:43:37;;;;;;;3.30;1.97;;;21.80;40.60;;;;;;5008116;28;20600;-75
2023/06/13 01:46:14;;;;;;;3.53;1.97;;;21.80;40.60;;;;;;5028137;28;20205;-74
2023/06/13 01:48:59;;;;;;;2.70;1.90;;;21.70;40.90;;;;;;5012083;28;20244;-74
2023/06/13 01:51:37;;;;;;;3.23;2.60;;;21.70;41.00;;;;;;5012578;28;20616;-74
2023/06/13 01:54:09;;;;;;;4.13;2.43;;;21.60;41.00;;;;;;5029469;28;20639;-74
2023/06/13 01:56:37;;;;;;;3.00;2.00;;;21.60;41.20;;;;;;5029510;28;20592;-74
2023/06/13 01:59:07;;;;;;;3.13;2.80;;;21.50;40.90;;;;;;5012249;28;20580;-74
2023/06/13 02:01:36;;;;;;;4.83;3.23;;;21.50;41.10;;;;;;5005172;28;20674;-73
2023/06/13 02:04:02;;;;;;;4.27;2.73;;;21.50;41.60;;;;;;5029605;28;20646;-74
2023/06/13 02:06:29;;;;;;;2.70;2.50;;;21.50;41.50;;;;;;5029773;28;20595;-74
2023/06/13 02:08:56;;;;;;;3.20;2.60;;;21.40;41.70;;;;;;5011098;28;20690;-74
2023/06/13 02:11:21;;;;;;;3.67;2.73;;;21.40;42.00;;;;;;4989276;28;20637;-75
2023/06/13 02:13:48;;;;;;;3.07;2.53;;;21.40;41.60;;;;;;4973692;28;21240;-74
2023/06/13 02:16:14;;;;;;;2.67;2.27;;;21.40;41.70;;;;;;4973607;28;20578;-74
2023/06/13 02:18:40;;;;;;;4.87;3.03;;;21.40;41.70;;;;;;5000015;28;20593;-74
2023/06/13 02:21:06;;;;;;;3.40;2.50;;;21.30;41.80;;;;;;5008948;28;20652;-75
2023/06/13 02:23:32;;;;;;;2.97;2.50;;;21.30;41.70;;;;;;5009512;28;20182;-75
2023/06/13 02:25:58;;;;;;;5.10;2.27;;;21.30;41.80;;;;;;4993076;28;21074;-74
2023/06/13 02:28:24;;;;;;;3.50;1.80;;;21.30;42.00;;;;;;4992138;28;20237;-74
2023/06/13 02:30:50;;;;;;;5.37;2.60;;;21.30;42.00;;;;;;4993142;28;20182;-74
2023/06/13 02:33:15;;;;;;;4.30;2.90;;;21.30;42.10;;;;;;5008741;28;21171;-74
2023/06/13 02:35:45;;;;;;;3.83;2.70;;;21.30;42.30;;;;;;5009839;28;20281;-74
2023/06/13 02:38:13;;;;;;;3.40;2.63;;;21.30;42.30;;;;;;5011831;28;20683;-74
2023/06/13 02:40:39;;;;;;;4.00;2.60;;;21.30;42.30;;;;;;5009094;28;20581;-74
2023/06/13 02:43:05;;;;;;;4.83;3.03;;;21.20;42.50;;;;;;5008495;28;20189;-74
2023/06/13 02:45:30;;;;;;;3.90;3.13;;;21.20;43.70;;;;;;5009138;28;20260;-74
2023/06/13 02:47:57;;;;;;;3.50;2.50;;;21.20;42.80;;;;;;5009041;28;20588;-74
2023/06/13 02:50:23;;;;;;;4.13;2.80;;;21.10;42.80;;;;;;4991584;28;20936;-74
2023/06/13 02:52:49;;;;;;;9.53;2.13;;;21.20;42.80;;;;;;4992264;28;20616;-74
2023/06/13 02:55:15;;;;;;;4.13;2.83;;;21.10;42.70;;;;;;5009354;28;21141;-74
2023/06/13 02:57:41;;;;;;;3.47;2.93;;;21.10;42.90;;;;;;5011901;28;20177;-74
2023/06/13 03:00:09;;;;;;;4.80;2.60;;;21.10;43.10;;;;;;5011223;28;20177;-74
2023/06/13 03:02:38;;;;;;;3.50;2.50;;;21.00;43.10;;;;;;5011855;28;20600;-74
2023/06/13 03:05:07;;;;;;;3.20;2.77;;;21.00;43.10;;;;;;5028201;28;21160;-74
2023/06/13 03:07:34;;;;;;;5.20;2.37;;;21.00;43.20;;;;;;5012033;28;20596;-74
2023/06/13 03:10:03;;;;;;;7.83;2.77;;;21.00;43.40;;;;;;5011017;28;21211;-74
2023/06/13 03:12:32;;;;;;;3.80;3.07;;;20.90;43.20;;;;;;5027511;28;21160;-74
2023/06/13 03:14:58;;;;;;;3.27;2.73;;;20.90;43.60;;;;;;5029894;28;20620;-74
2023/06/13 03:17:24;;;;;;;4.33;3.17;;;20.90;43.70;;;;;;5011408;28;20231;-74
2023/06/13 03:19:50;;;;;;;4.30;3.10;;;20.80;43.80;;;;;;5027812;28;20212;-74
2023/06/13 03:22:17;;;;;;;4.43;3.00;;;20.90;43.80;;;;;;5011111;28;20205;-74
2023/06/13 03:24:44;;;;;;;3.73;2.43;;;20.80;43.80;;;;;;5012038;28;20615;-74
2023/06/13 03:27:12;;;;;;;4.40;2.87;;;20.80;43.80;;;;;;5027878;28;20584;-74
2023/06/13 03:29:40;;;;;;;5.33;3.10;;;20.80;43.80;;;;;;5028119;28;20588;-73
2023/06/13 03:32:08;;;;;;;3.57;2.90;;;20.80;43.90;;;;;;5015068;28;20640;-74
2023/06/13 03:34:37;;;;;;;5.80;3.50;;;20.80;43.90;;;;;;5007588;28;20672;-74
2023/06/13 03:37:05;;;;;;;3.63;2.90;;;20.80;44.90;;;;;;5005324;28;20642;-74
2023/06/13 03:39:33;;;;;;;3.77;2.27;;;20.70;44.20;;;;;;4987849;28;20598;-74
2023/06/13 03:41:59;;;;;;;7.30;2.87;;;20.80;44.20;;;;;;4988039;28;20810;-74
2023/06/13 03:44:25;;;;;;;3.60;2.37;;;20.70;45.20;;;;;;4991481;28;20589;-73
2023/06/13 03:46:51;;;;;;;4.97;3.10;;;20.70;44.30;;;;;;5011185;28;20592;-74
2023/06/13 03:49:21;;;;;;;5.80;3.73;;;20.70;44.30;;;;;;5027260;28;20596;-74
2023/06/13 03:51:46;;;;;;;3.93;2.50;;;20.70;44.40;;;;;;5027690;28;20971;-73
2023/06/13 03:54:12;;;;;;;5.77;2.60;;;20.70;44.60;;;;;;5011210;28;20849;-74
2023/06/13 03:56:38;;;;;;;3.70;2.50;;;20.70;44.50;;;;;;5028848;28;20272;-73
2023/06/13 03:59:03;;;;;;;4.07;2.40;;;20.70;45.20;;;;;;5004223;28;20190;-74
2023/06/13 04:01:29;;;;;;;3.87;2.97;;;20.70;45.30;;;;;;5004809;28;20202;-74
2023/06/13 04:03:55;;;;;;;3.27;2.43;;;20.70;44.80;;;;;;4988014;28;20183;-74
2023/06/13 04:06:21;;;;;;;3.23;2.53;;;20.70;45.10;;;;;;4988288;28;20318;-74
2023/06/13 04:08:48;;;;;;;3.60;2.50;;;20.70;45.00;;;;;;4986903;28;21194;-74
2023/06/13 04:11:14;;;;;;;3.47;3.00;;;20.80;45.20;;;;;;4986673;28;20610;-74
2023/06/13 04:13:41;;;;;;;3.67;2.13;;;20.80;45.20;;;;;;4987502;28;20203;-74
2023/06/13 04:16:07;;;;;;;5.70;2.67;;;20.70;45.10;;;;;;4971971;28;20582;-74
2023/06/13 04:18:36;;;;;;;4.80;2.60;;;20.70;45.70;;;;;;4987783;28;20573;-74
2023/06/13 04:21:03;;;;;;;4.20;2.70;;;20.70;45.20;;;;;;4975053;28;20624;-75
2023/06/13 04:23:29;;;;;;;3.00;2.70;;;20.70;45.60;;;;;;4991362;28;20578;-75
2023/06/13 04:25:57;;;;;;;3.00;2.50;;;20.80;45.50;;;;;;5008513;28;20673;-74
2023/06/13 04:28:24;;;;;;;4.20;2.67;;;20.90;45.70;;;;;;5003416;28;20595;-74
2023/06/13 04:30:51;;;;;;;4.20;3.20;;;21.00;46.40;;;;;;4991777;28;20602;-74
2023/06/13 04:33:18;;;;;;;3.00;2.67;;;21.10;45.90;;;;;;5026317;28;21191;-74
2023/06/13 04:35:44;;;;;;;3.17;2.40;;;21.30;46.10;;;;;;5023268;28;20595;-74
2023/06/13 04:38:13;;;;;;;3.50;2.60;;;21.40;46.00;;;;;;5030657;28;20584;-75
2023/06/13 04:40:40;;;;;;;3.70;2.93;;;21.40;46.20;;;;;;5032067;28;20607;-74
2023/06/13 04:43:06;;;;;;;5.13;2.97;;;21.50;46.00;;;;;;5032327;28;20932;-74
2023/06/13 04:45:35;;;;;;;2.50;2.20;;;21.60;46.00;;;;;;5032177;28;20584;-74
2023/06/13 04:48:03;;;;;;;4.80;2.70;;;21.70;45.90;;;;;;5032380;28;20933;-75
2023/06/13 04:50:31;;;;;;;4.83;3.03;;;21.70;45.70;;;;;;5014026;28;20619;-75
2023/06/13 04:52:57;;;;;;;5.60;2.73;;;21.80;45.80;;;;;;5030043;28;20612;-75
2023/06/13 04:55:29;;;;;;;3.10;2.70;;;21.90;46.60;;;;;;5032252;28;20632;-75
2023/06/13 04:57:54;;;;;;;4.30;2.77;;;22.10;45.90;;;;;;5046368;28;20622;-75
2023/06/13 05:00:22;;;;;;;4.67;3.37;;;22.10;45.90;;;;;;5031710;28;20568;-75
2023/06/13 05:02:48;;;;;;;4.63;2.70;;;22.30;45.80;;;;;;5031316;28;20277;-75
2023/06/13 05:05:16;;;;;;;3.40;2.93;;;22.40;45.70;;;;;;5032189;28;21004;-75
2023/06/13 05:07:42;;;;;;;3.90;3.10;;;22.50;45.60;;;;;;5029891;28;20580;-75
2023/06/13 05:10:08;;;;;;;5.07;3.00;;;22.50;45.50;;;;;;5030290;28;20581;-75
2023/06/13 05:12:34;;;;;;;3.33;3.00;;;22.60;45.50;;;;;;5031247;28;20662;-75
2023/06/13 05:14:59;;;;;;;4.30;2.97;;;22.80;45.70;;;;;;5031883;28;20201;-75
2023/06/13 05:17:27;;;;;;;3.53;2.90;;;22.90;45.50;;;;;;5030602;28;20173;-75
2023/06/13 05:19:54;;;;;;;4.10;3.00;;;23.00;45.40;;;;;;5029336;28;20213;-75
2023/06/13 05:22:20;;;;;;;3.53;2.83;;;23.10;45.20;;;;;;5029939;28;21162;-76
2023/06/13 05:24:46;;;;;;;5.23;2.80;;;23.20;45.20;;;;;;5025413;28;20708;-77
2023/06/13 05:27:13;;;;;;;3.80;2.73;;;23.30;45.10;;;;;;5010484;28;20221;-76
2023/06/13 05:29:39;;;;;;;3.93;2.63;;;23.30;44.80;;;;;;5009494;28;20333;-76
2023/06/13 05:32:06;;;;;;;5.00;2.73;;;23.30;44.70;;;;;;5009416;28;20601;-76
2023/06/13 05:34:32;;;;;;;3.73;2.53;;;23.30;44.80;;;;;;5010282;28;20724;-76
2023/06/13 05:36:58;;;;;;;4.63;2.87;;;23.30;44.90;;;;;;5023130;28;20643;-76
2023/06/13 05:39:23;;;;;;;3.90;2.57;;;23.50;45.00;;;;;;5009917;28;20660;-76
2023/06/13 05:41:49;;;;;;;7.37;2.97;;;23.60;44.80;;;;;;5009569;28;20214;-76
2023/06/13 05:44:15;;;;;;;5.90;3.23;;;23.70;44.90;;;;;;5010122;28;20194;-76
2023/06/13 05:46:41;;;;;;;5.20;2.10;;;23.90;45.00;;;;;;5011300;28;20553;-76
2023/06/13 05:49:07;;;;;;;4.30;2.90;;;24.00;44.90;;;;;;5009484;28;20182;-76
2023/06/13 05:51:33;;;;;;;6.30;2.80;;;24.10;44.80;;;;;;5009415;28;21200;-76
2023/06/13 05:53:59;;;;;;;3.77;3.43;;;24.20;45.30;;;;;;5010019;28;20672;-76
2023/06/13 05:56:25;;;;;;;3.80;3.03;;;24.60;45.30;;;;;;5010830;28;20265;-76
2023/06/13 05:58:51;;;;;;;3.23;2.30;;;25.10;45.60;;;;;;5029320;28;20515;-76
2023/06/13 06:01:20;;;;;;;3.80;2.40;;;26.00;46.30;;;;;;5029270;28;20678;-76
2023/06/13 06:03:46;;;;;;;4.20;3.30;;;27.00;46.40;;;;;;5030168;28;20569;-78
2023/06/13 06:06:13;;;;;;;4.33;2.50;;;27.70;43.90;;;;;;5013346;28;20584;-76
2023/06/13 06:08:38;;;;;;;3.30;2.47;;;28.40;43.80;;;;;;5016359;28;20597;-76
2023/06/13 06:11:04;;;;;;;4.30;2.70;;;29.00;42.30;;;;;;5009332;28;20612;-76
2023/06/13 06:13:30;;;;;;;4.10;2.43;;;29.40;41.80;;;;;;5010493;28;20179;-76
2023/06/13 06:15:55;;;;;;;3.53;2.00;;;29.90;40.40;;;;;;5010015;28;20690;-76
2023/06/13 06:18:22;;;;;;;3.00;2.33;;;30.30;41.10;;;;;;5006584;28;20178;-76
2023/06/13 06:20:47;;;;;;;4.87;2.83;;;30.70;40.50;;;;;;5001279;28;20183;-75
2023/06/13 06:23:14;;;;;;;4.73;2.07;;;31.00;39.60;;;;;;5010392;28;20603;-76
2023/06/13 06:25:40;;;;;;;2.37;1.77;;;31.40;39.60;;;;;;5004494;28;20182;-75
2023/06/13 06:28:06;;;;;;;6.23;3.00;;;31.90;39.70;;;;;;4993244;28;20652;-76
2023/06/13 06:30:32;;;;;;;4.00;2.37;;;32.40;38.80;;;;;;5012242;28;20187;-76
2023/06/13 06:32:58;;;;;;;3.43;2.40;;;33.00;38.90;;;;;;5029854;28;20709;-76
2023/06/13 06:35:23;;;;;;;5.03;2.70;;;33.40;38.40;;;;;;5021508;28;20559;-76
2023/06/13 06:37:49;;;;;;;3.80;2.30;;;33.70;37.90;;;;;;5028847;28;20204;-76
2023/06/13 06:40:16;;;;;;;3.87;2.33;;;34.00;37.00;;;;;;5027856;28;20183;-76
2023/06/13 06:42:42;;;;;;;3.23;2.10;;;34.00;35.10;;;;;;5027512;28;20210;-75
2023/06/13 06:45:12;;;;;;;2.47;2.03;;;33.90;35.20;;;;;;5012569;28;20592;-76
2023/06/13 06:47:38;;;;;;;4.30;2.43;;;34.00;35.40;;;;;;5029484;28;20637;-76
2023/06/13 06:50:05;;;;;;;3.70;2.20;;;34.20;34.70;;;;;;5029372;28;20587;-76
2023/06/13 06:52:30;;;;;;;2.80;2.23;;;34.30;34.10;;;;;;5029413;28;20606;-76
2023/06/13 06:54:56;;;;;;;2.17;1.60;;;34.40;34.50;;;;;;5029799;28;21399;-76
2023/06/13 06:57:22;;;;;;;2.63;2.00;;;34.60;34.90;;;;;;5010295;28;20626;-76
2023/06/13 06:59:47;;;;;;;3.70;2.90;;;34.90;34.00;;;;;;5008274;28;20655;-77
2023/06/13 07:02:13;;;;;;;2.63;2.20;;;34.90;32.60;;;;;;5008505;28;20202;-76
2023/06/13 07:04:39;;;;;;;4.27;2.70;;;34.90;32.40;;;;;;5026845;28;20541;-76
2023/06/13 07:07:04;;;;;;;2.40;2.13;;;34.80;32.90;;;;;;5028791;28;20176;-77
2023/06/13 07:09:30;;;;;;;2.50;1.97;;;34.70;32.30;;;;;;5027909;28;20174;-76
2023/06/13 07:11:57;;;;;;;3.47;2.63;;;34.80;33.00;;;;;;5029345;28;20525;-76
2023/06/13 07:14:26;;;;;;;3.33;2.20;;;34.60;31.90;;;;;;5027825;28;20346;-76
2023/06/13 07:16:55;;;;;;;3.70;2.33;;;34.40;31.50;;;;;;5016977;28;21253;-76
2023/06/13 07:19:21;;;;;;;4.75;3.00;;;34.10;32.10;;;;;;5008292;28;20724;-76
2023/06/13 07:21:47;;;;;;;3.23;2.13;;;33.80;30.10;;;;;;5007829;28;20668;-76
2023/06/13 07:24:13;;;;;;;3.27;2.40;;;33.50;31.10;;;;;;5008678;28;20634;-76
2023/06/13 07:26:39;;;;;;;6.40;2.10;;;33.60;31.40;;;;;;4991872;28;20240;-76
2023/06/13 07:29:05;;;;;;;3.90;2.37;;;33.70;32.10;;;;;;5007980;28;20220;-77
2023/06/13 07:31:31;;;;;;;4.10;2.27;;;33.90;31.60;;;;;;5004270;28;20669;-76
2023/06/13 07:33:57;;;;;;;3.00;2.07;;;34.10;31.60;;;;;;4991086;28;20244;-76
2023/06/13 07:36:22;;;;;;;2.43;1.77;;;34.20;31.60;;;;;;5016144;28;20611;-76
2023/06/13 07:38:50;;;;;;;4.40;2.40;;;34.40;32.10;;;;;;5029283;28;20517;-76
2023/06/13 07:41:16;;;;;;;2.53;1.60;;;34.80;32.00;;;;;;5029083;28;20886;-77
2023/06/13 07:43:41;;;;;;;4.27;2.10;;;35.10;31.80;;;;;;5028271;28;20588;-77
2023/06/13 07:46:07;;;;;;;2.70;2.13;;;35.50;31.80;;;;;;5028375;28;20605;-77
2023/06/13 07:48:33;;;;;;;2.50;2.00;;;36.00;31.70;;;;;;5027395;28;20181;-77
2023/06/13 07:50:59;;;;;;;2.90;1.97;;;36.40;31.70;;;;;;5029477;28;20268;-74
2023/06/13 07:53:24;;;;;;;2.30;2.10;;;36.70;31.30;;;;;;5028722;28;20177;-74
2023/06/13 07:55:53;;;;;;;2.43;1.87;;;37.20;30.50;;;;;;5030439;28;20169;-76
2023/06/13 07:58:18;;;;;;;2.50;2.03;;;37.20;30.00;;;;;;5030712;28;20171;-76
2023/06/13 08:00:44;;;;;;;3.17;2.17;;;37.20;29.60;;;;;;5032736;28;20580;-77
2023/06/13 08:03:10;;;;;;;4.27;1.90;;;37.00;29.50;;;;;;5013479;28;20174;-76
2023/06/13 08:05:37;;;;;;;3.97;2.13;;;37.00;29.60;;;;;;5012786;28;20213;-76
2023/06/13 08:08:02;;;;;;;2.87;2.10;;;36.90;29.30;;;;;;5011044;28;20991;-76
2023/06/13 08:10:28;;;;;;;4.20;2.17;;;36.90;29.90;;;;;;4996539;28;20181;-76
2023/06/13 08:12:54;;;;;;;3.40;1.50;;;36.70;28.70;;;;;;5012546;28;20209;-76
2023/06/13 08:15:20;;;;;;;1.87;1.50;;;36.30;28.80;;;;;;5010450;28;21613;-76
2023/06/13 08:17:46;;;;;;;2.73;1.93;;;36.10;29.40;;;;;;5011044;28;20677;-76
2023/06/13 08:20:13;;;;;;;3.90;1.70;;;36.00;29.10;;;;;;5010995;28;20608;-76
2023/06/13 08:22:40;;;;;;;5.50;2.30;;;36.10;29.40;;;;;;5012479;28;20571;-76
2023/06/13 08:25:10;;;;;;;2.73;1.50;;;36.20;28.90;;;;;;5011799;28;20588;-76
2023/06/13 08:27:36;;;;;;;4.40;1.70;;;36.40;29.40;;;;;;5012194;28;20671;-76
2023/06/13 08:30:06;;;;;;;3.20;1.73;;;36.40;29.10;;;;;;5010075;28;20589;-76
2023/06/13 08:32:32;;;;;;;2.37;1.80;;;36.60;29.40;;;;;;4996282;28;20638;-76
2023/06/13 08:34:59;;;;;;;4.00;2.37;;;37.10;29.80;;;;;;4991217;28;20782;-76
2023/06/13 08:37:26;;;;;;;2.83;2.13;;;37.50;29.10;;;;;;5029568;28;20591;-76
2023/06/13 08:39:52;;;;;;;4.40;3.80;;;37.70;28.70;;;;;;5026460;28;20581;-76
2023/06/13 08:42:19;;;;;;;2.67;1.80;;;37.80;28.40;;;;;;5010535;28;20624;-76
2023/06/13 08:44:47;;;;;;;5.20;2.43;;;37.70;28.10;;;;;;5012144;28;20609;-76
2023/06/13 08:47:16;;;;;;;2.53;1.90;;;37.70;28.20;;;;;;5014026;28;20666;-76
2023/06/13 08:49:42;;;;;;;4.27;2.03;;;38.00;28.50;;;;;;5010022;28;20612;-76
2023/06/13 08:52:13;;;;;;;3.00;2.03;;;38.40;28.60;;;;;;5010824;28;20609;-76
2023/06/13 08:54:43;;;;;;;2.77;1.77;;;38.70;28.30;;;;;;5010280;28;20647;-75
2023/06/13 08:57:15;;;;;;;4.33;1.77;;;39.10;28.50;;;;;;5010577;28;20598;-76
2023/06/13 08:59:43;;;;;;;2.10;1.83;;;39.40;28.00;;;;;;5011220;28;20584;-76
2023/06/13 09:02:10;;;;;;;1.90;1.57;;;39.70;28.40;;;;;;5012060;28;21164;-73
2023/06/13 09:04:38;;;;;;;2.93;2.00;;;39.80;27.80;;;;;;5010949;28;20593;-73
2023/06/13 09:07:04;;;;;;;7.20;2.30;;;40.10;27.60;;;;;;5010599;28;20597;-74
2023/06/13 09:09:31;;;;;;;3.47;2.10;;;40.10;27.10;;;;;;5011367;28;20980;-75
2023/06/13 09:11:58;;;;;;;4.73;2.07;;;39.80;26.80;;;;;;5010809;28;20620;-76
2023/06/13 09:14:23;;;;;;;2.30;1.80;;;39.80;27.10;;;;;;5011977;28;20707;-77
2023/06/13 09:16:52;;;;;;;3.10;1.67;;;39.80;27.40;;;;;;5007132;28;20634;-73
2023/06/13 09:19:18;;;;;;;2.63;2.13;;;39.60;26.60;;;;;;4991808;28;20171;-74
2023/06/13 09:21:44;;;;;;;3.47;1.87;;;39.10;26.50;;;;;;5010196;28;20609;-73
2023/06/13 09:24:12;;;;;;;3.00;1.77;;;39.00;27.20;;;;;;5013570;28;20592;-73
2023/06/13 09:26:42;;;;;;;2.67;1.83;;;39.00;27.00;;;;;;5010132;28;20190;-75
2023/06/13 09:29:09;;;;;;;2.10;1.80;;;39.00;27.50;;;;;;5009295;28;20620;-75
2023/06/13 09:31:38;;;;;;;2.37;1.60;;;38.80;26.80;;;;;;5009745;28;20645;-75
2023/06/13 09:34:06;;;;;;;3.50;2.20;;;38.50;26.70;;;;;;5009112;28;20690;-75
2023/06/13 09:36:35;;;;;;;3.40;1.87;;;38.10;26.40;;;;;;5022554;28;20973;-77
2023/06/13 09:39:03;;;;;;;2.80;2.00;;;37.70;26.60;;;;;;5030650;28;20634;-76
2023/06/13 09:41:31;;;;;;;5.80;2.30;;;37.60;27.40;;;;;;5029240;28;20690;-77
2023/06/13 09:44:01;;;;;;;2.30;1.63;;;37.60;27.20;;;;;;5029997;28;20584;-77
2023/06/13 09:46:28;;;;;;;7.53;2.20;;;37.60;27.20;;;;;;5029738;28;20620;-76
2023/06/13 09:48:53;;;;;;;3.63;2.03;;;37.90;27.50;;;;;;5030787;28;20592;-76
2023/06/13 09:51:21;;;;;;;2.70;1.97;;;38.30;27.50;;;;;;5030281;28;20616;-76
2023/06/13 09:53:47;;;;;;;2.60;1.57;;;38.60;27.70;;;;;;5029905;28;20313;-76
2023/06/13 09:56:14;;;;;;;2.97;1.90;;;39.00;27.70;;;;;;5028934;28;21211;-76
2023/06/13 09:58:40;;;;;;;3.93;1.70;;;39.20;27.00;;;;;;5029885;28;20200;-76
2023/06/13 10:01:12;;;;;;;3.23;2.00;;;39.20;27.20;;;;;;5033705;28;21175;-75
2023/06/13 10:03:37;;;;;;;3.33;1.90;;;39.50;27.20;;;;;;5025208;28;20248;-76
2023/06/13 10:06:03;;;;;;;2.57;1.47;;;39.90;27.00;;;;;;5001274;28;20621;-76
2023/06/13 10:08:31;;;;;;;2.10;1.80;;;40.00;26.70;;;;;;5005316;28;20222;-76
2023/06/13 10:11:02;;;;;;;2.30;1.77;;;40.10;26.30;;;;;;4991739;28;20199;-76
2023/06/13 10:13:32;;;;;;;2.40;1.90;;;40.10;26.40;;;;;;4989471;28;20590;-76
2023/06/13 10:16:00;;;;;;;3.07;1.90;;;40.20;26.70;;;;;;4991470;28;20606;-76
2023/06/13 10:18:35;;;;;;;2.87;1.90;;;40.50;26.40;;;;;;5004490;28;20588;-75
2023/06/13 10:21:02;;;;;;;2.17;1.73;;;40.50;26.10;;;;;;5029278;28;20615;-74
2023/06/13 10:23:33;;;;;;;2.07;1.60;;;40.60;26.10;;;;;;5045737;28;20665;-74
2023/06/13 10:26:06;;;;;;;4.37;1.93;;;40.80;26.20;;;;;;5030041;28;20572;-76
2023/06/13 10:28:48;;;;;;;3.40;1.97;;;41.00;26.00;;;;;;5028972;28;20581;-75
2023/06/13 10:31:26;;;;;;;2.30;1.80;;;41.00;26.20;;;;;;5029895;28;20604;-75
2023/06/13 10:34:24;;;;;;;2.77;2.03;;;41.30;25.50;;;;;;5028801;28;20640;-75
2023/06/13 10:37:09;;;;;;;3.10;2.20;;;41.20;24.30;;;;;;5016082;28;20613;-75
2023/06/13 10:40:04;;;;;;;2.30;2.10;;;41.10;25.00;;;;;;5008632;28;20597;-75
2023/06/13 10:42:43;;;;;;;3.80;2.20;;;40.70;24.10;;;;;;5008394;28;21597;-75
2023/06/13 10:45:16;;;;;;;2.73;1.70;;;40.40;25.00;;;;;;5009379;28;20950;-74
2023/06/13 10:47:43;;;;;;;2.83;1.83;;;40.50;24.60;;;;;;5009909;28;20589;-75
2023/06/13 10:50:12;;;;;;;2.17;1.90;;;40.30;24.90;;;;;;5007361;28;20655;-75
2023/06/13 10:52:43;;;;;;;2.23;2.00;;;40.10;24.40;;;;;;5008310;28;20616;-75
2023/06/13 10:55:21;;;;;;;2.63;2.27;;;39.70;24.40;;;;;;5009149;28;20679;-75
2023/06/13 10:57:50;;;;;;;2.83;1.90;;;39.50;25.00;;;;;;5008402;28;20612;-75
2023/06/13 11:00:32;;;;;;;3.57;1.77;;;39.60;25.50;;;;;;5007970;28;20617;-75
2023/06/13 11:03:05;;;;;;;2.20;1.63;;;39.70;25.10;;;;;;5001681;28;20653;-76
2023/06/13 11:05:47;;;;;;;3.80;2.10;;;39.80;25.70;;;;;;5023406;28;20669;-76
2023/06/13 11:08:14;;;;;;;2.33;1.83;;;39.50;24.10;;;;;;5007448;28;20699;-75
2023/06/13 11:10:43;;;;;;;2.40;2.13;;;38.70;24.30;;;;;;5010048;28;20574;-76
2023/06/13 11:13:18;;;;;;;2.50;1.90;;;38.30;24.60;;;;;;5027747;28;20581;-75
2023/06/13 11:15:44;;;;;;;7.60;2.20;;;38.00;24.80;;;;;;5024713;28;20647;-75
2023/06/13 11:18:10;;;;;;;3.20;2.00;;;37.90;25.30;;;;;;5009751;28;20622;-75
2023/06/13 11:20:56;;;;;;;2.60;2.10;;;37.90;25.60;;;;;;5008582;28;20620;-75
2023/06/13 11:23:24;;;;;;;2.30;2.00;;;38.00;25.50;;;;;;5024894;28;20174;-75
2023/06/13 11:25:51;;;;;;;2.63;1.90;;;38.10;25.70;;;;;;4992037;28;20684;-75
2023/06/13 11:28:18;;;;;;;4.40;2.30;;;38.00;25.70;;;;;;4991737;28;20573;-75
2023/06/13 11:30:47;;;;;;;3.50;2.10;;;38.00;25.30;;;;;;4994490;28;20580;-75
2023/06/13 11:33:13;;;;;;;6.03;3.00;;;37.80;25.20;;;;;;5029249;28;20583;-75
2023/06/13 11:35:48;;;;;;;3.37;2.00;;;37.30;24.60;;;;;;5015892;28;20734;-75
2023/06/13 11:38:20;;;;;;;3.50;2.57;;;37.00;25.40;;;;;;5014489;28;20589;-75
2023/06/13 11:40:54;;;;;;;3.67;2.40;;;36.70;25.40;;;;;;4994221;28;20586;-76
2023/06/13 11:43:23;;;;;;;3.23;2.23;;;36.70;25.60;;;;;;4992476;28;20926;-75
2023/06/13 11:45:49;;;;;;;2.37;2.17;;;36.70;25.60;;;;;;4996236;28;20572;-75
2023/06/13 11:48:22;;;;;;;4.00;2.53;;;36.70;25.90;;;;;;5013120;28;20940;-75
2023/06/13 11:50:48;;;;;;;2.43;1.57;;;36.80;25.70;;;;;;5012810;28;20577;-75
2023/06/13 11:53:15;;;;;;;3.00;2.50;;;36.90;25.90;;;;;;5011755;28;20585;-76
2023/06/13 11:55:41;;;;;;;2.80;2.10;;;37.10;26.10;;;;;;5012121;28;20628;-75
2023/06/13 11:58:06;;;;;;;3.43;2.53;;;37.20;26.10;;;;;;4994531;28;20600;-75
2023/06/13 12:00:55;;;;;;;3.30;2.33;;;37.00;25.50;;;;;;5012383;28;20204;-75
2023/06/13 12:03:25;;;;;;;2.70;2.10;;;36.60;25.30;;;;;;5013107;28;20198;-76
2023/06/13 12:05:52;;;;;;;4.10;2.40;;;36.40;25.50;;;;;;5012129;28;20638;-76
2023/06/13 12:08:18;;;;;;;3.10;2.20;;;36.20;25.50;;;;;;5012826;28;20604;-75
2023/06/13 12:10:48;;;;;;;2.43;1.70;;;36.00;25.50;;;;;;5012873;28;20577;-76
2023/06/13 12:13:17;;;;;;;2.90;1.80;;;35.80;25.70;;;;;;5011650;28;20949;-75
2023/06/13 12:15:43;;;;;;;4.03;2.27;;;35.80;25.90;;;;;;5012633;28;20633;-75
2023/06/13 12:18:09;;;;;;;2.83;2.30;;;35.80;25.90;;;;;;4978994;28;20577;-75
2023/06/13 12:20:50;;;;;;;2.60;1.80;;;35.80;26.10;;;;;;5007322;28;20579;-73
2023/06/13 12:23:17;;;;;;;2.13;1.70;;;35.80;26.60;;;;;;4994215;28;20163;-74
2023/06/13 12:25:44;;;;;;;2.97;2.10;;;35.90;26.40;;;;;;5003044;28;20651;-73
2023/06/13 12:28:12;;;;;;;6.53;2.50;;;35.80;25.90;;;;;;5010594;28;20589;-73
2023/06/13 12:30:41;;;;;;;3.00;2.20;;;35.50;25.80;;;;;;5010982;28;21254;-73
2023/06/13 12:33:08;;;;;;;3.37;2.70;;;35.30;25.90;;;;;;5026224;28;20587;-74
2023/06/13 12:35:34;;;;;;;3.33;2.40;;;34.70;25.70;;;;;;5002630;28;20643;-73
2023/06/13 12:38:01;;;;;;;3.10;2.10;;;34.30;25.80;;;;;;5029169;28;20633;-73
2023/06/13 12:40:34;;;;;;;3.30;1.97;;;34.00;26.00;;;;;;5031791;28;20233;-73
2023/06/13 12:43:01;;;;;;;2.77;1.97;;;33.80;26.20;;;;;;5031760;28;20654;-74
2023/06/13 12:45:28;;;;;;;3.17;2.80;;;33.70;26.20;;;;;;5031320;28;20599;-73
2023/06/13 12:47:55;;;;;;;3.30;2.30;;;33.40;26.70;;;;;;5031450;28;20681;-73
2023/06/13 12:50:26;;;;;;;3.67;2.80;;;33.00;26.40;;;;;;5029645;28;20626;-73
2023/06/13 12:53:02;;;;;;;3.00;2.40;;;32.60;26.40;;;;;;5031906;28;20648;-73